Terminal Aerodrome Forecast
Issued by NWS

Home | Current Version | Previous Version | Text Only | Print | Product List | Glossary On
Versions: 1 2 3 4 5 6 7 8 9 10 11 12 13 14 15 16
705
FTUS43 KLSX 180520
TAFCPS
TAF
KCPS 180520Z 1806/1906 20006KT P6SM OVC025
      TEMPO 1806/1810 -DZ OVC015
     FM181000 21006KT 5SM -DZ BR OVC015
     FM181400 23006KT P6SM OVC015
     FM181800 23009KT P6SM BKN025
     FM182300 21008KT P6SM SCT035=

USA.gov is the U.S. government's official web portal to all federal, state and local government web resources and services.